Airfield :
LOGIN :

Register | Disclaimer

   EN    FR    IT 

 










Legend :    VFR   Marginal VFR   IFR   Intensive IFR   Very Intensive IFR
Visi :
Ceiling :
>= 8 km
>= 3000ft
5 to 8 km
1000 to 3000 ft
1500m to 5 km
500 to 1000 ft
800 to 1500m
200 to 500 ft
< 800m
< 200 ft
Symbols :   Thunderstorms  Fog  Heavy snow  Heavy precipitations  Wind > 20 kt
SIGMETs :     Misc.  Thunderstorms  Icing  Turbulence  Mountain Waves  Volcanic Ashes






- Airport Elevation : 359 ft
- IATA code : DEB


LHDC - Debrecen

CURRENT METAR :
  • 251045Z AUTO VRB02KT 0600 R04/0800N FZFG BKN001 M03/M03 Q1025 NOSIG

EXPIRED METARs :
  • 251038Z AUTO VRB02KT 0700 R04/0800D FZFG BKN001 M03/M03 Q1025
  • 251025Z AUTO VRB01KT 0800 R04/1200D FZFG BKN002 M03/M03 Q1025
  • 251023Z AUTO VRB01KT 0900 R04/1300D FZFG BKN002 M03/M03 Q1025
  • 251002Z AUTO VRB01KT 1000 R04/1300U BR BKN002 M03/M03 Q1025
  • 250956Z AUTO VRB02KT 0900 R04/1200N FZFG BKN002 M03/M03 Q1025
  • 250951Z AUTO VRB02KT 1000 R04/1200D BR OVC001 M03/M03 Q1025
  • 250947Z AUTO VRB02KT 1000 R04/1200U BR NCD M03/M03 Q1025
  • 250930Z AUTO VRB02KT 0900 R04/1000U -SHSN FZFG BKN001 M03/M03 Q1025
  • 250904Z AUTO 12003KT 090V150 0600 R04/0750N -SHSN FZFG BKN001 M03/M03 Q1025
  • 250900Z AUTO 12003KT 090V150 0600 R04/0800N -SHSN FZFG BKN001 M03/M03 Q1025
  • 250847Z AUTO VRB03KT 0600 R04/0800U -SHSN FZFG VV002 M03/M03 Q1025
  • 250824Z AUTO VRB03KT 0400 R04/0550N FZFG VV002 M03/M03 Q1025
  • 250821Z AUTO VRB03KT 0450 R04/0550N FZFG VV002 M03/M03 Q1025
  • 250811Z AUTO 15003KT 120V190 0550 R04/0700D -SHSN FZFG VV002 M03/M03 Q1025

TAF TAF LHDC
Valid from the 25 at 09:00 until the 25 at 18:00 UTC


250815Z 2509/2518 VRB02KT 0800 FZFG OVC002
TEMPO 2509/2510 0300 FZDZ FZFG OVC001
TEMPO 2510/2516 20005KT 1600 BR OVC005



MET'MAP, your aeronautical weather chart ! - Copyright ORBIFLY December 2007 - Disclaimer

ORBIFLY MET'MAP TEAM :

Programming & Development : Alexandra Zaïnal
Concept & original design : Baudouin d'Aumeries
Assistance for programming : Marc-Olivier Méhu
Technical & hardware support : Manuel Goepfert

Contact : metmap@orbifly.com




SOURCES & CREDITS :

   NOAA